sensor_id;sensor_type;location;lat;lon;timestamp;pressure;altitude;pressure_sealevel;temperature;humidity
19005;BME280;9635;52.078;8.648;2023-05-21T00:04:07;100639.50;;;13.76;65.42
19005;BME280;9635;52.078;8.648;2023-05-21T00:09:12;100638.50;;;13.77;65.52
19005;BME280;9635;52.078;8.648;2023-05-21T00:14:16;100631.97;;;13.79;65.47
19005;BME280;9635;52.078;8.648;2023-05-21T00:19:19;100622.91;;;13.80;65.78
19005;BME280;9635;52.078;8.648;2023-05-21T00:24:22;100615.09;;;13.87;65.59
19005;BME280;9635;52.078;8.648;2023-05-21T00:29:26;100617.22;;;13.93;65.82
19005;BME280;9635;52.078;8.648;2023-05-21T00:34:30;100615.41;;;13.93;65.63
19005;BME280;9635;52.078;8.648;2023-05-21T00:39:34;100600.31;;;13.91;65.44
19005;BME280;9635;52.078;8.648;2023-05-21T00:44:38;100609.13;;;13.93;65.73
19005;BME280;9635;52.078;8.648;2023-05-21T00:49:41;100604.00;;;13.90;65.74
19005;BME280;9635;52.078;8.648;2023-05-21T00:54:45;100602.59;;;13.86;65.77
19005;BME280;9635;52.078;8.648;2023-05-21T00:59:51;100603.72;;;13.83;65.86
19005;BME280;9635;52.078;8.648;2023-05-21T01:04:54;100595.22;;;13.88;65.91
19005;BME280;9635;52.078;8.648;2023-05-21T01:09:57;100595.78;;;13.91;65.89
19005;BME280;9635;52.078;8.648;2023-05-21T01:15:02;100590.22;;;13.93;66.15
19005;BME280;9635;52.078;8.648;2023-05-21T01:20:06;100602.59;;;13.86;66.03
19005;BME280;9635;52.078;8.648;2023-05-21T01:25:13;100594.47;;;13.76;66.47
19005;BME280;9635;52.078;8.648;2023-05-21T01:30:17;100594.03;;;13.71;66.53
19005;BME280;9635;52.078;8.648;2023-05-21T01:35:21;100581.94;;;13.65;66.62
19005;BME280;9635;52.078;8.648;2023-05-21T01:40:33;100584.06;;;13.62;66.82
19005;BME280;9635;52.078;8.648;2023-05-21T01:45:40;100578.22;;;13.57;67.19
19005;BME280;9635;52.078;8.648;2023-05-21T01:50:44;100583.91;;;13.54;67.20
19005;BME280;9635;52.078;8.648;2023-05-21T01:55:49;100589.03;;;13.47;67.33
19005;BME280;9635;52.078;8.648;2023-05-21T02:00:52;100576.78;;;13.43;67.37
19005;BME280;9635;52.078;8.648;2023-05-21T02:05:55;100572.66;;;13.39;67.78
19005;BME280;9635;52.078;8.648;2023-05-21T02:10:59;100570.94;;;13.38;67.60
19005;BME280;9635;52.078;8.648;2023-05-21T02:16:02;100565.78;;;13.35;67.87
19005;BME280;9635;52.078;8.648;2023-05-21T02:21:05;100558.09;;;13.30;68.09
19005;BME280;9635;52.078;8.648;2023-05-21T02:26:10;100565.34;;;13.30;67.92
19005;BME280;9635;52.078;8.648;2023-05-21T02:31:12;100570.31;;;13.24;68.33
19005;BME280;9635;52.078;8.648;2023-05-21T02:36:15;100568.59;;;13.23;68.42
19005;BME280;9635;52.078;8.648;2023-05-21T02:41:21;100565.91;;;13.23;68.35
19005;BME280;9635;52.078;8.648;2023-05-21T02:46:23;100564.34;;;13.21;68.35
19005;BME280;9635;52.078;8.648;2023-05-21T02:51:27;100565.63;;;13.17;68.26
19005;BME280;9635;52.078;8.648;2023-05-21T02:56:31;100557.19;;;13.10;68.51
19005;BME280;9635;52.078;8.648;2023-05-21T03:01:35;100544.38;;;13.02;69.08
19005;BME280;9635;52.078;8.648;2023-05-21T03:06:38;100539.16;;;13.01;69.21
19005;BME280;9635;52.078;8.648;2023-05-21T03:11:42;100536.47;;;13.01;69.40
19005;BME280;9635;52.078;8.648;2023-05-21T03:16:45;100541.28;;;13.07;69.50
19005;BME280;9635;52.078;8.648;2023-05-21T03:21:51;100533.94;;;13.09;69.41
19005;BME280;9635;52.078;8.648;2023-05-21T03:26:56;100525.69;;;13.11;69.38
19005;BME280;9635;52.078;8.648;2023-05-21T03:32:00;100527.69;;;13.09;69.22
19005;BME280;9635;52.078;8.648;2023-05-21T03:37:05;100539.00;;;13.02;69.43
19005;BME280;9635;52.078;8.648;2023-05-21T03:42:09;100540.72;;;13.03;69.58
19005;BME280;9635;52.078;8.648;2023-05-21T03:47:25;100540.44;;;13.07;69.56
19005;BME280;9635;52.078;8.648;2023-05-21T03:52:28;100540.56;;;13.05;69.59
19005;BME280;9635;52.078;8.648;2023-05-21T03:57:33;100550.97;;;13.10;69.72
19005;BME280;9635;52.078;8.648;2023-05-21T04:02:36;100545.59;;;13.19;69.65
19005;BME280;9635;52.078;8.648;2023-05-21T04:07:39;100543.47;;;13.23;69.53
19005;BME280;9635;52.078;8.648;2023-05-21T04:12:44;100540.22;;;13.19;69.57
19005;BME280;9635;52.078;8.648;2023-05-21T04:17:49;100546.63;;;13.28;69.67
19005;BME280;9635;52.078;8.648;2023-05-21T04:22:53;100550.44;;;13.35;69.45
19005;BME280;9635;52.078;8.648;2023-05-21T04:27:57;100556.31;;;13.40;69.14
19005;BME280;9635;52.078;8.648;2023-05-21T04:33:00;100563.16;;;13.44;69.30
19005;BME280;9635;52.078;8.648;2023-05-21T04:38:03;100570.56;;;13.52;68.96
19005;BME280;9635;52.078;8.648;2023-05-21T04:43:08;100569.00;;;13.59;68.76
19005;BME280;9635;52.078;8.648;2023-05-21T04:48:12;100569.72;;;13.71;68.54
19005;BME280;9635;52.078;8.648;2023-05-21T04:53:16;100566.91;;;13.82;68.43
19005;BME280;9635;52.078;8.648;2023-05-21T04:58:20;100572.16;;;13.84;68.10
19005;BME280;9635;52.078;8.648;2023-05-21T05:03:24;100563.50;;;13.90;67.97
19005;BME280;9635;52.078;8.648;2023-05-21T05:08:27;100561.66;;;14.00;67.74
19005;BME280;9635;52.078;8.648;2023-05-21T05:13:33;100545.16;;;14.03;67.69
19005;BME280;9635;52.078;8.648;2023-05-21T05:18:36;100542.03;;;14.08;67.27
19005;BME280;9635;52.078;8.648;2023-05-21T05:23:39;100542.00;;;14.18;67.13
19005;BME280;9635;52.078;8.648;2023-05-21T05:28:44;100545.00;;;14.24;66.94
19005;BME280;9635;52.078;8.648;2023-05-21T05:33:47;100544.72;;;14.47;66.51
19005;BME280;9635;52.078;8.648;2023-05-21T05:38:51;100543.25;;;14.62;66.11
19005;BME280;9635;52.078;8.648;2023-05-21T05:43:56;100538.09;;;14.69;65.80
19005;BME280;9635;52.078;8.648;2023-05-21T05:49:03;100536.53;;;14.76;65.90
19005;BME280;9635;52.078;8.648;2023-05-21T05:54:06;100533.94;;;14.84;65.65
19005;BME280;9635;52.078;8.648;2023-05-21T05:59:11;100534.78;;;14.85;64.99
19005;BME280;9635;52.078;8.648;2023-05-21T06:04:20;100538.41;;;15.03;64.96
19005;BME280;9635;52.078;8.648;2023-05-21T06:09:23;100529.09;;;15.05;64.54
19005;BME280;9635;52.078;8.648;2023-05-21T06:14:27;100528.44;;;15.03;64.68
19005;BME280;9635;52.078;8.648;2023-05-21T06:19:30;100527.53;;;15.13;64.27
19005;BME280;9635;52.078;8.648;2023-05-21T06:24:34;100531.56;;;15.26;64.20
19005;BME280;9635;52.078;8.648;2023-05-21T06:29:39;100531.56;;;15.26;64.05
19005;BME280;9635;52.078;8.648;2023-05-21T06:34:42;100531.78;;;15.43;63.45
19005;BME280;9635;52.078;8.648;2023-05-21T06:39:46;100525.53;;;15.60;63.32
19005;BME280;9635;52.078;8.648;2023-05-21T06:44:50;100516.91;;;15.75;62.93
19005;BME280;9635;52.078;8.648;2023-05-21T06:50:01;100520.09;;;15.96;62.30
19005;BME280;9635;52.078;8.648;2023-05-21T06:55:05;100525.47;;;16.06;61.58
19005;BME280;9635;52.078;8.648;2023-05-21T07:00:34;100528.09;;;16.15;61.03
19005;BME280;9635;52.078;8.648;2023-05-21T07:05:37;100520.81;;;16.16;60.98
19005;BME280;9635;52.078;8.648;2023-05-21T07:10:41;100525.38;;;16.15;60.96
19005;BME280;9635;52.078;8.648;2023-05-21T07:15:46;100520.31;;;16.39;60.75
19005;BME280;9635;52.078;8.648;2023-05-21T07:20:49;100524.88;;;16.64;60.51
19005;BME280;9635;52.078;8.648;2023-05-21T07:25:54;100528.78;;;16.96;59.35
19005;BME280;9635;52.078;8.648;2023-05-21T07:30:58;100532.66;;;17.28;58.37
19005;BME280;9635;52.078;8.648;2023-05-21T07:36:07;100529.66;;;17.39;57.67
19005;BME280;9635;52.078;8.648;2023-05-21T07:41:10;100526.28;;;17.53;57.71
19005;BME280;9635;52.078;8.648;2023-05-21T07:46:15;100529.06;;;17.86;57.33
19005;BME280;9635;52.078;8.648;2023-05-21T07:51:19;100519.41;;;18.24;56.56
19005;BME280;9635;52.078;8.648;2023-05-21T07:56:22;100519.03;;;18.52;55.60
19005;BME280;9635;52.078;8.648;2023-05-21T08:01:27;100513.63;;;18.44;55.12
19005;BME280;9635;52.078;8.648;2023-05-21T08:06:31;100509.19;;;18.34;55.34
19005;BME280;9635;52.078;8.648;2023-05-21T08:11:35;100521.06;;;18.58;55.19
19005;BME280;9635;52.078;8.648;2023-05-21T08:16:39;100511.50;;;18.70;54.78
19005;BME280;9635;52.078;8.648;2023-05-21T08:21:42;100516.94;;;18.70;54.97
19005;BME280;9635;52.078;8.648;2023-05-21T08:26:46;100519.94;;;19.00;54.65
19005;BME280;9635;52.078;8.648;2023-05-21T08:31:51;100515.28;;;19.09;54.43
19005;BME280;9635;52.078;8.648;2023-05-21T08:36:54;100513.69;;;19.22;53.96
19005;BME280;9635;52.078;8.648;2023-05-21T08:42:23;100515.41;;;19.23;53.55
19005;BME280;9635;52.078;8.648;2023-05-21T08:47:41;100511.31;;;19.59;53.33
19005;BME280;9635;52.078;8.648;2023-05-21T08:52:45;100516.84;;;19.97;53.11
19005;BME280;9635;52.078;8.648;2023-05-21T08:57:49;100521.50;;;20.26;51.84
19005;BME280;9635;52.078;8.648;2023-05-21T09:02:54;100508.59;;;20.43;51.40
19005;BME280;9635;52.078;8.648;2023-05-21T09:08:04;100509.94;;;20.24;51.91
19005;BME280;9635;52.078;8.648;2023-05-21T09:13:19;100507.22;;;20.24;51.88
19005;BME280;9635;52.078;8.648;2023-05-21T09:18:25;100511.34;;;20.20;52.43
19005;BME280;9635;52.078;8.648;2023-05-21T09:23:38;100505.22;;;20.55;51.73
19005;BME280;9635;52.078;8.648;2023-05-21T09:28:41;100498.56;;;20.88;50.71
19005;BME280;9635;52.078;8.648;2023-05-21T09:33:46;100493.00;;;20.96;50.44
19005;BME280;9635;52.078;8.648;2023-05-21T09:38:51;100500.97;;;20.97;50.07
19005;BME280;9635;52.078;8.648;2023-05-21T09:43:57;100495.34;;;21.14;51.04
19005;BME280;9635;52.078;8.648;2023-05-21T09:49:03;100495.09;;;21.45;50.37
19005;BME280;9635;52.078;8.648;2023-05-21T09:54:09;100502.75;;;21.93;49.58
19005;BME280;9635;52.078;8.648;2023-05-21T09:59:12;100498.22;;;22.56;48.13
19005;BME280;9635;52.078;8.648;2023-05-21T10:04:17;100494.44;;;23.33;46.97
19005;BME280;9635;52.078;8.648;2023-05-21T10:09:20;100482.56;;;23.87;46.03
19005;BME280;9635;52.078;8.648;2023-05-21T10:14:24;100476.03;;;24.42;44.89
19005;BME280;9635;52.078;8.648;2023-05-21T10:19:31;100469.44;;;24.56;44.86
19005;BME280;9635;52.078;8.648;2023-05-21T10:24:37;100476.78;;;24.82;44.11
19005;BME280;9635;52.078;8.648;2023-05-21T10:29:43;100461.56;;;25.70;43.49
19005;BME280;9635;52.078;8.648;2023-05-21T10:34:47;100460.53;;;26.21;42.23
19005;BME280;9635;52.078;8.648;2023-05-21T10:39:51;100453.28;;;26.01;42.34
19005;BME280;9635;52.078;8.648;2023-05-21T10:45:06;100444.25;;;25.62;43.50
19005;BME280;9635;52.078;8.648;2023-05-21T10:50:35;100450.03;;;25.48;43.56
19005;BME280;9635;52.078;8.648;2023-05-21T10:55:50;100434.63;;;25.47;43.58
19005;BME280;9635;52.078;8.648;2023-05-21T11:01:00;100430.09;;;25.66;43.61
19005;BME280;9635;52.078;8.648;2023-05-21T11:06:05;100422.00;;;25.71;43.06
19005;BME280;9635;52.078;8.648;2023-05-21T11:11:09;100421.50;;;26.31;42.85
19005;BME280;9635;52.078;8.648;2023-05-21T11:16:15;100424.94;;;26.01;42.91
19005;BME280;9635;52.078;8.648;2023-05-21T11:21:21;100420.34;;;26.13;42.89
19005;BME280;9635;52.078;8.648;2023-05-21T11:26:28;100421.66;;;25.85;42.88
19005;BME280;9635;52.078;8.648;2023-05-21T11:31:31;100427.84;;;26.06;43.49
19005;BME280;9635;52.078;8.648;2023-05-21T11:36:43;100425.94;;;26.06;43.10
19005;BME280;9635;52.078;8.648;2023-05-21T11:41:52;100412.94;;;26.14;43.02
19005;BME280;9635;52.078;8.648;2023-05-21T11:46:56;100411.03;;;26.39;42.84
19005;BME280;9635;52.078;8.648;2023-05-21T11:52:01;100418.38;;;26.45;42.73
19005;BME280;9635;52.078;8.648;2023-05-21T11:57:05;100403.53;;;26.28;43.00
19005;BME280;9635;52.078;8.648;2023-05-21T12:02:08;100397.28;;;26.14;43.10
19005;BME280;9635;52.078;8.648;2023-05-21T12:07:13;100398.34;;;26.13;43.83
19005;BME280;9635;52.078;8.648;2023-05-21T12:12:17;100398.69;;;26.23;43.67
19005;BME280;9635;52.078;8.648;2023-05-21T12:17:22;100393.19;;;26.23;43.49
19005;BME280;9635;52.078;8.648;2023-05-21T12:22:26;100388.69;;;26.66;43.49
19005;BME280;9635;52.078;8.648;2023-05-21T12:27:30;100393.03;;;26.92;42.91
19005;BME280;9635;52.078;8.648;2023-05-21T12:32:39;100385.66;;;27.34;42.29
19005;BME280;9635;52.078;8.648;2023-05-21T12:37:45;100374.75;;;28.05;40.89
19005;BME280;9635;52.078;8.648;2023-05-21T12:42:48;100385.66;;;28.99;40.05
19005;BME280;9635;52.078;8.648;2023-05-21T12:47:52;100374.00;;;28.97;39.30
19005;BME280;9635;52.078;8.648;2023-05-21T12:52:58;100372.63;;;28.71;39.83
19005;BME280;9635;52.078;8.648;2023-05-21T12:58:02;100370.16;;;27.64;40.93
19005;BME280;9635;52.078;8.648;2023-05-21T13:03:06;100379.38;;;27.57;42.28
19005;BME280;9635;52.078;8.648;2023-05-21T13:08:10;100367.53;;;27.80;40.79
19005;BME280;9635;52.078;8.648;2023-05-21T13:13:14;100361.16;;;27.80;40.63
19005;BME280;9635;52.078;8.648;2023-05-21T13:18:17;100370.84;;;27.47;41.52
19005;BME280;9635;52.078;8.648;2023-05-21T13:23:22;100360.34;;;27.68;41.64
19005;BME280;9635;52.078;8.648;2023-05-21T13:28:26;100358.66;;;27.25;42.28
19005;BME280;9635;52.078;8.648;2023-05-21T13:33:30;100354.59;;;28.04;41.57
19005;BME280;9635;52.078;8.648;2023-05-21T13:38:34;100351.53;;;28.41;41.04
19005;BME280;9635;52.078;8.648;2023-05-21T13:43:41;100341.56;;;28.40;40.67
19005;BME280;9635;52.078;8.648;2023-05-21T13:48:44;100341.50;;;29.33;39.35
19005;BME280;9635;52.078;8.648;2023-05-21T13:53:48;100344.56;;;29.65;39.32
19005;BME280;9635;52.078;8.648;2023-05-21T13:58:51;100344.69;;;29.58;39.20
19005;BME280;9635;52.078;8.648;2023-05-21T14:03:53;100344.88;;;28.66;39.60
19005;BME280;9635;52.078;8.648;2023-05-21T14:08:58;100341.72;;;29.14;39.29
19005;BME280;9635;52.078;8.648;2023-05-21T14:14:01;100332.09;;;29.51;38.55
19005;BME280;9635;52.078;8.648;2023-05-21T14:19:04;100334.13;;;29.72;38.70
19005;BME280;9635;52.078;8.648;2023-05-21T14:24:08;100338.50;;;29.85;38.08
19005;BME280;9635;52.078;8.648;2023-05-21T14:29:11;100335.38;;;29.31;39.18
19005;BME280;9635;52.078;8.648;2023-05-21T14:34:14;100322.44;;;29.20;39.34
19005;BME280;9635;52.078;8.648;2023-05-21T14:39:18;100320.50;;;29.20;39.13
19005;BME280;9635;52.078;8.648;2023-05-21T14:44:21;100327.69;;;28.23;40.16
19005;BME280;9635;52.078;8.648;2023-05-21T14:49:24;100334.03;;;27.53;41.35
19005;BME280;9635;52.078;8.648;2023-05-21T14:54:28;100328.50;;;27.42;42.10
19005;BME280;9635;52.078;8.648;2023-05-21T14:59:31;100314.50;;;27.67;42.07
19005;BME280;9635;52.078;8.648;2023-05-21T15:04:34;100317.94;;;27.50;42.24
19005;BME280;9635;52.078;8.648;2023-05-21T15:09:38;100313.97;;;27.34;42.52
19005;BME280;9635;52.078;8.648;2023-05-21T15:14:41;100311.63;;;27.08;42.99
19005;BME280;9635;52.078;8.648;2023-05-21T15:19:44;100309.34;;;27.82;41.95
19005;BME280;9635;52.078;8.648;2023-05-21T15:24:48;100307.66;;;28.04;41.39
19005;BME280;9635;52.078;8.648;2023-05-21T15:29:51;100299.59;;;27.56;42.44
19005;BME280;9635;52.078;8.648;2023-05-21T15:34:54;100285.69;;;27.51;42.30
19005;BME280;9635;52.078;8.648;2023-05-21T15:39:58;100271.38;;;27.18;42.58
19005;BME280;9635;52.078;8.648;2023-05-21T15:45:02;100263.28;;;27.47;41.83
19005;BME280;9635;52.078;8.648;2023-05-21T15:50:06;100242.50;;;27.21;41.57
19005;BME280;9635;52.078;8.648;2023-05-21T15:55:11;100250.84;;;26.72;42.50
19005;BME280;9635;52.078;8.648;2023-05-21T16:00:15;100253.28;;;26.50;43.03
19005;BME280;9635;52.078;8.648;2023-05-21T16:05:18;100250.94;;;26.17;42.74
19005;BME280;9635;52.078;8.648;2023-05-21T16:10:22;100246.50;;;26.35;43.39
19005;BME280;9635;52.078;8.648;2023-05-21T16:15:25;100250.66;;;26.25;43.54
19005;BME280;9635;52.078;8.648;2023-05-21T16:20:28;100252.41;;;26.20;43.59
19005;BME280;9635;52.078;8.648;2023-05-21T16:25:33;100234.16;;;26.56;43.08
19005;BME280;9635;52.078;8.648;2023-05-21T16:30:37;100246.50;;;26.83;42.86
19005;BME280;9635;52.078;8.648;2023-05-21T16:35:40;100242.16;;;27.76;41.63
19005;BME280;9635;52.078;8.648;2023-05-21T16:40:44;100239.59;;;28.79;39.84
19005;BME280;9635;52.078;8.648;2023-05-21T16:45:47;100240.41;;;29.08;38.94
19005;BME280;9635;52.078;8.648;2023-05-21T16:50:52;100243.72;;;28.93;39.01
19005;BME280;9635;52.078;8.648;2023-05-21T16:55:57;100247.16;;;29.01;38.24
19005;BME280;9635;52.078;8.648;2023-05-21T17:01:01;100252.56;;;29.24;38.03
19005;BME280;9635;52.078;8.648;2023-05-21T17:06:04;100240.06;;;29.22;38.13
19005;BME280;9635;52.078;8.648;2023-05-21T17:11:09;100249.34;;;28.53;39.05
19005;BME280;9635;52.078;8.648;2023-05-21T17:16:12;100243.84;;;28.30;38.79
19005;BME280;9635;52.078;8.648;2023-05-21T17:21:15;100242.22;;;28.86;38.30
19005;BME280;9635;52.078;8.648;2023-05-21T17:26:20;100238.69;;;29.75;36.71
19005;BME280;9635;52.078;8.648;2023-05-21T17:31:23;100237.56;;;30.37;35.82
19005;BME280;9635;52.078;8.648;2023-05-21T17:36:26;100243.56;;;30.78;35.20
19005;BME280;9635;52.078;8.648;2023-05-21T17:41:30;100241.72;;;30.61;34.97
19005;BME280;9635;52.078;8.648;2023-05-21T17:46:33;100244.06;;;29.65;36.28
19005;BME280;9635;52.078;8.648;2023-05-21T17:51:36;100244.31;;;28.38;38.19
19005;BME280;9635;52.078;8.648;2023-05-21T17:56:41;100251.22;;;26.76;41.19
19005;BME280;9635;52.078;8.648;2023-05-21T18:01:47;100266.75;;;25.85;43.27
19005;BME280;9635;52.078;8.648;2023-05-21T18:06:49;100260.97;;;25.25;44.59
19005;BME280;9635;52.078;8.648;2023-05-21T18:11:54;100251.09;;;24.85;45.44
19005;BME280;9635;52.078;8.648;2023-05-21T18:16:58;100250.44;;;24.51;46.51
19005;BME280;9635;52.078;8.648;2023-05-21T18:22:02;100248.25;;;24.22;47.55
19005;BME280;9635;52.078;8.648;2023-05-21T18:27:07;100246.44;;;23.96;48.00
19005;BME280;9635;52.078;8.648;2023-05-21T18:32:10;100248.16;;;23.77;48.42
19005;BME280;9635;52.078;8.648;2023-05-21T18:37:15;100251.13;;;23.69;48.12
19005;BME280;9635;52.078;8.648;2023-05-21T18:42:20;100251.13;;;23.55;48.49
19005;BME280;9635;52.078;8.648;2023-05-21T18:47:23;100250.94;;;23.43;48.68
19005;BME280;9635;52.078;8.648;2023-05-21T18:52:26;100252.44;;;23.39;48.80
19005;BME280;9635;52.078;8.648;2023-05-21T18:57:30;100258.13;;;23.25;49.54
19005;BME280;9635;52.078;8.648;2023-05-21T19:02:36;100262.06;;;23.09;49.99
19005;BME280;9635;52.078;8.648;2023-05-21T19:07:38;100267.53;;;22.95;50.85
19005;BME280;9635;52.078;8.648;2023-05-21T19:12:44;100263.75;;;22.83;50.98
19005;BME280;9635;52.078;8.648;2023-05-21T19:17:47;100273.22;;;22.74;51.24
19005;BME280;9635;52.078;8.648;2023-05-21T19:22:50;100269.59;;;22.60;51.98
19005;BME280;9635;52.078;8.648;2023-05-21T19:27:54;100270.41;;;22.54;52.27
19005;BME280;9635;52.078;8.648;2023-05-21T19:32:57;100277.34;;;22.50;52.19
19005;BME280;9635;52.078;8.648;2023-05-21T19:38:00;100279.84;;;22.45;53.05
19005;BME280;9635;52.078;8.648;2023-05-21T19:43:07;100284.00;;;22.34;53.20
19005;BME280;9635;52.078;8.648;2023-05-21T19:48:10;100273.63;;;22.23;54.01
19005;BME280;9635;52.078;8.648;2023-05-21T19:53:13;100281.81;;;22.16;53.74
19005;BME280;9635;52.078;8.648;2023-05-21T19:58:17;100286.22;;;22.10;53.00
19005;BME280;9635;52.078;8.648;2023-05-21T20:03:24;100292.31;;;22.13;52.78
19005;BME280;9635;52.078;8.648;2023-05-21T20:08:28;100287.06;;;22.11;52.73
19005;BME280;9635;52.078;8.648;2023-05-21T20:13:32;100284.72;;;22.08;52.54
19005;BME280;9635;52.078;8.648;2023-05-21T20:18:35;100286.56;;;22.01;52.21
19005;BME280;9635;52.078;8.648;2023-05-21T20:23:38;100289.13;;;22.02;52.21
19005;BME280;9635;52.078;8.648;2023-05-21T20:28:43;100280.03;;;21.95;52.08
19005;BME280;9635;52.078;8.648;2023-05-21T20:33:46;100282.31;;;21.92;52.31
19005;BME280;9635;52.078;8.648;2023-05-21T20:38:51;100277.63;;;21.85;52.54
19005;BME280;9635;52.078;8.648;2023-05-21T20:43:55;100279.09;;;21.81;52.15
19005;BME280;9635;52.078;8.648;2023-05-21T20:48:59;100275.00;;;21.71;52.59
19005;BME280;9635;52.078;8.648;2023-05-21T20:54:02;100278.13;;;21.67;52.72
19005;BME280;9635;52.078;8.648;2023-05-21T20:59:06;100281.28;;;21.64;52.56
19005;BME280;9635;52.078;8.648;2023-05-21T21:04:11;100277.88;;;21.62;52.16
19005;BME280;9635;52.078;8.648;2023-05-21T21:09:14;100285.03;;;21.63;51.48
19005;BME280;9635;52.078;8.648;2023-05-21T21:14:19;100289.47;;;21.64;51.69
19005;BME280;9635;52.078;8.648;2023-05-21T21:19:22;100294.13;;;20.99;54.99
19005;BME280;9635;52.078;8.648;2023-05-21T21:24:25;100289.50;;;20.42;56.28
19005;BME280;9635;52.078;8.648;2023-05-21T21:29:29;100283.81;;;20.59;56.16
19005;BME280;9635;52.078;8.648;2023-05-21T21:34:32;100272.63;;;20.53;56.60
19005;BME280;9635;52.078;8.648;2023-05-21T21:39:35;100267.34;;;20.67;55.23
19005;BME280;9635;52.078;8.648;2023-05-21T21:44:39;100278.13;;;20.75;55.59
19005;BME280;9635;52.078;8.648;2023-05-21T21:49:42;100269.41;;;20.65;56.19
19005;BME280;9635;52.078;8.648;2023-05-21T21:54:45;100266.22;;;20.61;56.30
19005;BME280;9635;52.078;8.648;2023-05-21T21:59:50;100274.81;;;20.58;56.51
19005;BME280;9635;52.078;8.648;2023-05-21T22:04:53;100274.91;;;20.50;56.89
19005;BME280;9635;52.078;8.648;2023-05-21T22:09:56;100276.06;;;20.41;56.83
19005;BME280;9635;52.078;8.648;2023-05-21T22:15:00;100279.94;;;20.31;57.45
19005;BME280;9635;52.078;8.648;2023-05-21T22:20:06;100279.16;;;20.23;57.51
19005;BME280;9635;52.078;8.648;2023-05-21T22:25:09;100272.59;;;20.17;57.29
19005;BME280;9635;52.078;8.648;2023-05-21T22:30:13;100267.06;;;20.10;57.07
19005;BME280;9635;52.078;8.648;2023-05-21T22:35:17;100262.72;;;20.16;57.84
19005;BME280;9635;52.078;8.648;2023-05-21T22:40:20;100259.81;;;20.18;57.05
19005;BME280;9635;52.078;8.648;2023-05-21T22:45:24;100256.22;;;20.17;56.56
19005;BME280;9635;52.078;8.648;2023-05-21T22:50:27;100248.63;;;20.12;56.70
19005;BME280;9635;52.078;8.648;2023-05-21T22:55:33;100255.56;;;20.15;56.54
19005;BME280;9635;52.078;8.648;2023-05-21T23:00:37;100248.34;;;20.07;56.31
19005;BME280;9635;52.078;8.648;2023-05-21T23:05:40;100251.44;;;20.04;56.44
19005;BME280;9635;52.078;8.648;2023-05-21T23:10:44;100252.94;;;20.07;56.59
19005;BME280;9635;52.078;8.648;2023-05-21T23:15:48;100249.84;;;20.10;56.45
19005;BME280;9635;52.078;8.648;2023-05-21T23:20:51;100248.09;;;20.02;56.64
19005;BME280;9635;52.078;8.648;2023-05-21T23:25:54;100240.19;;;19.93;56.84
19005;BME280;9635;52.078;8.648;2023-05-21T23:30:59;100247.44;;;19.56;59.22
19005;BME280;9635;52.078;8.648;2023-05-21T23:36:02;100247.22;;;19.19;60.32
19005;BME280;9635;52.078;8.648;2023-05-21T23:41:05;100254.59;;;19.34;60.35
19005;BME280;9635;52.078;8.648;2023-05-21T23:46:10;100261.06;;;19.33;60.55
19005;BME280;9635;52.078;8.648;2023-05-21T23:51:13;100249.09;;;18.50;70.06
19005;BME280;9635;52.078;8.648;2023-05-21T23:56:16;100253.50;;;17.72;75.98
